Time;durP1;ratioP1;P1;durP2;ratioP2;P2;SDS_P1;SDS_P2;PMS_P1;PMS_P2;Temp;Humidity;BMP_temperature;BMP_pressure;BME280_temperature;BME280_humidity;BME280_pressure;Samples;Min_cycle;Max_cycle;Signal;HPM_P1;HPM_P2
2022/12/29 00:44:34;;;;;;;15.20;9.53;;;;;;;4.23;100.00;100936.66;31568833;28;20061;-73
2022/12/29 00:59:41;;;;;;;18.67;12.97;;;;;;;4.21;100.00;100949.66;31549083;28;20086;-75
2022/12/29 01:14:43;;;;;;;16.50;10.00;;;;;;;4.09;100.00;100957.84;31582733;28;20051;-73
2022/12/29 01:29:44;;;;;;;15.63;8.23;;;;;;;4.02;100.00;100963.06;31558153;28;20052;-73
2022/12/29 01:44:48;;;;;;;11.53;6.83;;;;;;;4.26;100.00;100973.53;31568701;28;20389;-74
2022/12/29 01:59:56;;;;;;;23.07;9.17;;;;;;;4.44;100.00;100965.84;31582267;28;20219;-75
2022/12/29 02:15:01;;;;;;;18.43;7.33;;;;;;;4.29;100.00;100959.38;31566600;28;20093;-75
2022/12/29 02:30:03;;;;;;;13.70;7.47;;;;;;;4.34;100.00;100934.91;31576413;28;20052;-73
2022/12/29 02:45:30;;;;;;;14.33;8.33;;;;;;;4.45;100.00;100935.13;31575845;28;20048;-74
2022/12/29 03:00:34;;;;;;;12.90;7.50;;;;;;;4.67;100.00;100917.47;31591782;28;20044;-73
2022/12/29 03:16:00;;;;;;;15.50;8.80;;;;;;;4.85;100.00;100917.75;31610352;28;20044;-74
2022/12/29 03:31:04;;;;;;;15.40;7.37;;;;;;;4.98;100.00;100916.41;31573163;28;20044;-74
2022/12/29 03:46:08;;;;;;;18.70;10.23;;;;;;;4.87;100.00;100912.78;31591257;28;20044;-75
2022/12/29 04:01:10;;;;;;;11.70;6.73;;;;;;;4.66;100.00;100915.91;31589192;28;20056;-74
2022/12/29 07:22:56;;;;;;;12.40;5.67;;;;;;;12.16;65.77;101351.19;31736578;27;20906;-72
2022/12/29 07:37:59;;;;;;;8.30;4.73;;;;;;;12.91;55.27;101375.91;31711705;28;20482;-72
2022/12/29 07:53:01;;;;;;;9.03;5.23;;;;;;;13.11;51.47;101408.81;31742635;27;20052;-73
2022/12/29 08:08:03;;;;;;;14.63;6.90;;;;;;;13.42;46.48;101401.53;31721376;27;20043;-73
2022/12/29 08:23:05;;;;;;;10.93;5.00;;;;;;;10.13;60.78;101337.22;31722174;27;20052;-72
2022/12/29 08:38:07;;;;;;;16.10;5.73;;;;;;;9.42;70.51;101293.63;31620736;28;20097;-73
2022/12/29 08:53:12;;;;;;;9.37;6.17;;;;;;;10.57;65.73;101323.31;31597958;28;20066;-73
2022/12/29 09:08:14;;;;;;;8.10;5.20;;;;;;;11.84;58.34;101332.31;31562359;28;20086;-79
2022/12/29 09:23:22;;;;;;;14.07;6.90;;;;;;;13.02;53.63;101343.09;31592828;28;20040;-74
2022/12/29 09:38:26;;;;;;;11.60;5.47;;;;;;;13.22;51.85;101347.59;31564356;28;20048;-77
2022/12/29 09:53:28;;;;;;;9.73;4.70;;;;;;;13.89;48.75;101329.63;31559178;28;20053;-79
2022/12/29 10:08:36;;;;;;;13.43;4.67;;;;;;;14.03;46.79;101350.47;31554711;28;20117;-82
2022/12/29 10:23:44;;;;;;;11.97;5.23;;;;;;;14.22;46.15;101358.00;31565861;28;20100;-77
2022/12/29 10:39:03;;;;;;;8.23;4.20;;;;;;;13.44;47.34;101325.53;31577174;28;20442;-80
2022/12/29 10:54:14;;;;;;;8.87;4.40;;;;;;;11.16;57.53;101310.81;31572178;28;20051;-81
2022/12/29 11:09:28;;;;;;;5.93;3.30;;;;;;;13.06;51.46;101306.44;31579727;28;20052;-75
2022/12/29 11:24:47;;;;;;;6.83;3.70;;;;;;;12.48;56.41;101286.38;31579528;28;20518;-74
2022/12/29 11:40:24;;;;;;;6.67;3.60;;;;;;;10.38;60.68;101262.06;31569206;28;20108;-73
2022/12/29 11:55:28;;;;;;;5.40;3.93;;;;;;;9.66;68.50;101222.44;31564853;28;20113;-78
2022/12/29 12:10:44;;;;;;;12.37;5.97;;;;;;;9.89;69.11;101203.09;31599539;28;20047;-82
2022/12/29 12:26:12;;;;;;;7.93;4.87;;;;;;;11.09;64.62;101221.16;31566788;28;20487;-84
2022/12/29 12:41:20;;;;;;;8.87;6.07;;;;;;;10.62;67.12;101216.28;31595901;28;20510;-78
2022/12/29 12:56:36;;;;;;;12.67;7.13;;;;;;;8.74;77.22;101184.19;31573389;28;20056;-79
2022/12/29 16:34:22;;;;;;;10.83;5.90;;;;;;;6.54;100.00;100647.94;31511050;27;21083;-87
2022/12/29 16:49:26;;;;;;;5.70;4.33;;;;;;;6.40;100.00;100719.53;31527260;28;20052;-77
2022/12/29 17:04:29;;;;;;;15.57;8.50;;;;;;;6.29;100.00;100729.47;31560268;28;20106;-77
2022/12/29 17:19:34;;;;;;;14.70;8.40;;;;;;;6.12;100.00;100722.03;31551586;28;20086;-77
2022/12/29 17:34:36;;;;;;;7.30;4.10;;;;;;;6.00;100.00;100700.72;31492317;28;20452;-77
2022/12/29 17:49:38;;;;;;;12.33;6.97;;;;;;;5.95;100.00;100698.38;31456897;28;20060;-77
2022/12/29 18:04:40;;;;;;;11.53;5.90;;;;;;;5.83;100.00;100691.31;31444840;28;20044;-81
2022/12/29 18:19:42;;;;;;;5.27;3.97;;;;;;;5.52;100.00;100692.56;31423580;28;20072;-77
2022/12/29 18:34:44;;;;;;;5.50;4.00;;;;;;;6.08;100.00;100672.69;31427919;28;20111;-79
2022/12/29 18:49:46;;;;;;;10.87;7.23;;;;;;;6.10;100.00;100700.06;31406278;28;20053;-76
2022/12/29 19:04:48;;;;;;;8.77;5.83;;;;;;;5.98;100.00;100711.09;31431299;28;20099;-77
2022/12/29 19:19:54;;;;;;;10.02;6.90;;;;;;;6.05;100.00;100695.00;31412090;28;20064;-77
2022/12/29 19:34:55;;;;;;;8.50;5.07;;;;;;;6.36;100.00;100716.06;31446093;28;20071;-75
2022/12/29 19:49:58;;;;;;;6.60;4.70;;;;;;;6.36;100.00;100691.78;31391782;28;20056;-80
2022/12/29 20:05:00;;;;;;;6.40;3.90;;;;;;;6.24;100.00;100700.16;31370217;28;20136;-80
2022/12/29 20:20:03;;;;;;;6.53;3.57;;;;;;;6.30;100.00;100720.22;31421821;28;20193;-80
2022/12/29 20:35:05;;;;;;;7.20;4.00;;;;;;;6.45;100.00;100738.06;31418287;28;20044;-79
2022/12/29 20:50:07;;;;;;;5.13;2.53;;;;;;;6.46;100.00;100718.03;31395012;28;20086;-79
2022/12/29 21:05:09;;;;;;;5.07;2.80;;;;;;;6.63;100.00;100748.19;31443515;28;20052;-79
2022/12/29 21:20:31;;;;;;;6.57;3.30;;;;;;;6.62;100.00;100757.44;31441826;28;20115;-81
2022/12/29 21:35:37;;;;;;;8.27;4.90;;;;;;;6.80;100.00;100758.34;31426118;28;20049;-80
2022/12/29 22:21:23;;;;;;;7.40;2.97;;;;;;;6.73;100.00;100759.06;31438606;28;20059;-78
2022/12/29 22:36:25;;;;;;;5.07;3.13;;;;;;;6.65;100.00;100762.06;31437628;28;20110;-78
2022/12/29 22:51:28;;;;;;;4.37;2.83;;;;;;;6.80;100.00;100761.81;31451466;28;20053;-78
2022/12/29 23:06:30;;;;;;;5.33;3.50;;;;;;;7.01;100.00;100790.84;31442654;28;20056;-77
2022/12/29 23:21:32;;;;;;;4.57;2.23;;;;;;;6.92;100.00;100792.31;31431208;28;20086;-78
2022/12/29 23:36:34;;;;;;;4.57;2.90;;;;;;;6.80;100.00;100801.53;31433004;28;20106;-78
2022/12/29 23:51:37;;;;;;;9.03;2.50;;;;;;;6.84;100.00;100822.00;31441606;28;20052;-81
